sensor_id;sensor_type;location;lat;lon;timestamp;P1;durP1;ratioP1;P2;durP2;ratioP2
22480;SDS011;11407;56.964;-2.212;2023-11-19T00:01:43;8.07;;;5.07;;
22480;SDS011;11407;56.964;-2.212;2023-11-19T00:04:08;7.80;;;5.10;;
22480;SDS011;11407;56.964;-2.212;2023-11-19T00:06:34;8.37;;;5.30;;
22480;SDS011;11407;56.964;-2.212;2023-11-19T00:08:59;11.10;;;6.70;;
22480;SDS011;11407;56.964;-2.212;2023-11-19T00:11:25;9.03;;;6.10;;
22480;SDS011;11407;56.964;-2.212;2023-11-19T00:13:50;8.77;;;6.30;;
22480;SDS011;11407;56.964;-2.212;2023-11-19T00:16:16;8.87;;;6.37;;
22480;SDS011;11407;56.964;-2.212;2023-11-19T00:18:41;12.50;;;7.60;;
22480;SDS011;11407;56.964;-2.212;2023-11-19T00:21:06;9.57;;;6.83;;
22480;SDS011;11407;56.964;-2.212;2023-11-19T00:23:33;11.73;;;7.33;;
22480;SDS011;11407;56.964;-2.212;2023-11-19T00:25:58;10.50;;;7.10;;
22480;SDS011;11407;56.964;-2.212;2023-11-19T00:28:24;11.17;;;6.87;;
22480;SDS011;11407;56.964;-2.212;2023-11-19T00:30:49;7.97;;;6.63;;
22480;SDS011;11407;56.964;-2.212;2023-11-19T00:33:14;10.30;;;6.77;;
22480;SDS011;11407;56.964;-2.212;2023-11-19T00:35:39;11.03;;;7.07;;
22480;SDS011;11407;56.964;-2.212;2023-11-19T00:38:05;9.27;;;6.67;;
22480;SDS011;11407;56.964;-2.212;2023-11-19T00:40:30;9.27;;;6.70;;
22480;SDS011;11407;56.964;-2.212;2023-11-19T00:42:55;7.93;;;6.27;;
22480;SDS011;11407;56.964;-2.212;2023-11-19T00:45:21;10.00;;;6.20;;
22480;SDS011;11407;56.964;-2.212;2023-11-19T00:47:46;10.37;;;6.27;;
22480;SDS011;11407;56.964;-2.212;2023-11-19T00:50:11;8.40;;;6.37;;
22480;SDS011;11407;56.964;-2.212;2023-11-19T00:52:37;9.67;;;6.33;;
22480;SDS011;11407;56.964;-2.212;2023-11-19T00:55:03;9.13;;;6.40;;
22480;SDS011;11407;56.964;-2.212;2023-11-19T00:57:29;9.83;;;6.57;;
22480;SDS011;11407;56.964;-2.212;2023-11-19T00:59:55;8.90;;;6.17;;
22480;SDS011;11407;56.964;-2.212;2023-11-19T01:02:20;9.20;;;6.63;;
22480;SDS011;11407;56.964;-2.212;2023-11-19T01:04:45;8.97;;;6.50;;
22480;SDS011;11407;56.964;-2.212;2023-11-19T01:07:11;9.30;;;7.07;;
22480;SDS011;11407;56.964;-2.212;2023-11-19T01:09:38;9.73;;;6.97;;
22480;SDS011;11407;56.964;-2.212;2023-11-19T01:12:03;11.90;;;7.87;;
22480;SDS011;11407;56.964;-2.212;2023-11-19T01:14:28;10.67;;;7.60;;
22480;SDS011;11407;56.964;-2.212;2023-11-19T01:16:54;10.53;;;7.30;;
22480;SDS011;11407;56.964;-2.212;2023-11-19T01:19:19;10.20;;;7.63;;
22480;SDS011;11407;56.964;-2.212;2023-11-19T01:21:45;10.23;;;7.27;;
22480;SDS011;11407;56.964;-2.212;2023-11-19T01:24:10;6.50;;;5.00;;
22480;SDS011;11407;56.964;-2.212;2023-11-19T01:26:38;7.33;;;5.30;;
22480;SDS011;11407;56.964;-2.212;2023-11-19T01:29:03;6.47;;;4.50;;
22480;SDS011;11407;56.964;-2.212;2023-11-19T01:31:29;5.53;;;4.77;;
22480;SDS011;11407;56.964;-2.212;2023-11-19T01:33:55;5.03;;;4.20;;
22480;SDS011;11407;56.964;-2.212;2023-11-19T01:36:20;4.83;;;3.83;;
22480;SDS011;11407;56.964;-2.212;2023-11-19T01:38:45;3.83;;;3.40;;
22480;SDS011;11407;56.964;-2.212;2023-11-19T01:41:11;5.20;;;3.70;;
22480;SDS011;11407;56.964;-2.212;2023-11-19T01:43:37;5.40;;;3.80;;
22480;SDS011;11407;56.964;-2.212;2023-11-19T01:46:02;4.13;;;3.70;;
22480;SDS011;11407;56.964;-2.212;2023-11-19T01:48:28;5.50;;;4.00;;
22480;SDS011;11407;56.964;-2.212;2023-11-19T01:50:54;6.57;;;4.70;;
22480;SDS011;11407;56.964;-2.212;2023-11-19T01:53:20;5.03;;;3.77;;
22480;SDS011;11407;56.964;-2.212;2023-11-19T01:55:46;4.40;;;3.33;;
22480;SDS011;11407;56.964;-2.212;2023-11-19T01:58:12;4.03;;;3.13;;
22480;SDS011;11407;56.964;-2.212;2023-11-19T02:00:38;4.30;;;3.20;;
22480;SDS011;11407;56.964;-2.212;2023-11-19T02:03:03;4.50;;;3.47;;
22480;SDS011;11407;56.964;-2.212;2023-11-19T02:05:32;3.90;;;2.60;;
22480;SDS011;11407;56.964;-2.212;2023-11-19T02:07:58;4.10;;;3.40;;
22480;SDS011;11407;56.964;-2.212;2023-11-19T02:10:23;5.93;;;3.67;;
22480;SDS011;11407;56.964;-2.212;2023-11-19T02:12:50;3.37;;;2.90;;
22480;SDS011;11407;56.964;-2.212;2023-11-19T02:15:16;4.10;;;2.90;;
22480;SDS011;11407;56.964;-2.212;2023-11-19T02:17:44;4.20;;;3.00;;
22480;SDS011;11407;56.964;-2.212;2023-11-19T02:20:09;3.47;;;2.90;;
22480;SDS011;11407;56.964;-2.212;2023-11-19T02:22:36;5.23;;;3.40;;
22480;SDS011;11407;56.964;-2.212;2023-11-19T02:25:04;4.43;;;3.43;;
22480;SDS011;11407;56.964;-2.212;2023-11-19T02:30:13;3.60;;;3.00;;
22480;SDS011;11407;56.964;-2.212;2023-11-19T02:32:40;3.53;;;3.10;;
22480;SDS011;11407;56.964;-2.212;2023-11-19T02:35:06;4.30;;;3.30;;
22480;SDS011;11407;56.964;-2.212;2023-11-19T02:37:33;5.17;;;3.70;;
22480;SDS011;11407;56.964;-2.212;2023-11-19T02:39:58;4.40;;;3.10;;
22480;SDS011;11407;56.964;-2.212;2023-11-19T02:42:34;4.73;;;3.00;;
22480;SDS011;11407;56.964;-2.212;2023-11-19T02:44:59;5.17;;;3.10;;
22480;SDS011;11407;56.964;-2.212;2023-11-19T02:47:25;4.67;;;3.10;;
22480;SDS011;11407;56.964;-2.212;2023-11-19T02:49:50;3.30;;;2.73;;
22480;SDS011;11407;56.964;-2.212;2023-11-19T02:52:15;3.80;;;2.40;;
22480;SDS011;11407;56.964;-2.212;2023-11-19T02:54:41;5.47;;;3.03;;
22480;SDS011;11407;56.964;-2.212;2023-11-19T02:57:07;3.93;;;2.90;;
22480;SDS011;11407;56.964;-2.212;2023-11-19T02:59:35;6.30;;;2.93;;
22480;SDS011;11407;56.964;-2.212;2023-11-19T03:02:04;3.50;;;2.70;;
22480;SDS011;11407;56.964;-2.212;2023-11-19T03:04:31;3.40;;;2.47;;
22480;SDS011;11407;56.964;-2.212;2023-11-19T03:06:56;4.00;;;2.70;;
22480;SDS011;11407;56.964;-2.212;2023-11-19T03:09:23;5.10;;;2.80;;
22480;SDS011;11407;56.964;-2.212;2023-11-19T03:11:49;3.80;;;2.63;;
22480;SDS011;11407;56.964;-2.212;2023-11-19T03:14:14;3.43;;;2.50;;
22480;SDS011;11407;56.964;-2.212;2023-11-19T03:16:40;3.27;;;2.30;;
22480;SDS011;11407;56.964;-2.212;2023-11-19T03:19:05;4.07;;;2.60;;
22480;SDS011;11407;56.964;-2.212;2023-11-19T03:21:30;5.87;;;2.70;;
22480;SDS011;11407;56.964;-2.212;2023-11-19T03:23:59;3.77;;;2.20;;
22480;SDS011;11407;56.964;-2.212;2023-11-19T03:26:26;4.57;;;2.40;;
22480;SDS011;11407;56.964;-2.212;2023-11-19T03:28:51;4.97;;;2.40;;
22480;SDS011;11407;56.964;-2.212;2023-11-19T03:31:16;3.97;;;2.00;;
22480;SDS011;11407;56.964;-2.212;2023-11-19T03:33:42;3.97;;;2.20;;
22480;SDS011;11407;56.964;-2.212;2023-11-19T03:36:07;4.30;;;2.03;;
22480;SDS011;11407;56.964;-2.212;2023-11-19T03:38:34;3.87;;;1.90;;
22480;SDS011;11407;56.964;-2.212;2023-11-19T03:40:59;4.97;;;2.50;;
22480;SDS011;11407;56.964;-2.212;2023-11-19T03:43:24;3.73;;;2.00;;
22480;SDS011;11407;56.964;-2.212;2023-11-19T03:45:50;2.77;;;1.80;;
22480;SDS011;11407;56.964;-2.212;2023-11-19T03:48:15;3.27;;;1.90;;
22480;SDS011;11407;56.964;-2.212;2023-11-19T03:50:44;3.93;;;1.77;;
22480;SDS011;11407;56.964;-2.212;2023-11-19T03:53:09;3.23;;;1.60;;
22480;SDS011;11407;56.964;-2.212;2023-11-19T03:55:34;3.27;;;1.83;;
22480;SDS011;11407;56.964;-2.212;2023-11-19T03:58:00;2.50;;;1.63;;
22480;SDS011;11407;56.964;-2.212;2023-11-19T04:00:25;3.13;;;1.90;;
22480;SDS011;11407;56.964;-2.212;2023-11-19T04:02:50;3.03;;;1.67;;
22480;SDS011;11407;56.964;-2.212;2023-11-19T04:05:16;5.10;;;1.83;;
22480;SDS011;11407;56.964;-2.212;2023-11-19T04:07:43;3.17;;;1.60;;
22480;SDS011;11407;56.964;-2.212;2023-11-19T04:10:09;3.10;;;1.70;;
22480;SDS011;11407;56.964;-2.212;2023-11-19T04:12:34;2.53;;;1.30;;
22480;SDS011;11407;56.964;-2.212;2023-11-19T04:15:00;2.93;;;1.50;;
22480;SDS011;11407;56.964;-2.212;2023-11-19T04:17:25;1.97;;;1.37;;
22480;SDS011;11407;56.964;-2.212;2023-11-19T04:19:51;2.53;;;1.53;;
22480;SDS011;11407;56.964;-2.212;2023-11-19T04:22:16;3.53;;;1.60;;
22480;SDS011;11407;56.964;-2.212;2023-11-19T04:24:41;2.43;;;1.40;;
22480;SDS011;11407;56.964;-2.212;2023-11-19T04:27:09;1.67;;;1.37;;
22480;SDS011;11407;56.964;-2.212;2023-11-19T04:29:34;4.03;;;1.50;;
22480;SDS011;11407;56.964;-2.212;2023-11-19T04:31:59;3.17;;;1.40;;
22480;SDS011;11407;56.964;-2.212;2023-11-19T04:34:26;2.60;;;1.40;;
22480;SDS011;11407;56.964;-2.212;2023-11-19T04:36:51;3.87;;;1.50;;
22480;SDS011;11407;56.964;-2.212;2023-11-19T04:39:16;1.90;;;1.10;;
22480;SDS011;11407;56.964;-2.212;2023-11-19T04:41:49;1.90;;;1.17;;
22480;SDS011;11407;56.964;-2.212;2023-11-19T04:44:15;2.70;;;1.07;;
22480;SDS011;11407;56.964;-2.212;2023-11-19T04:46:41;1.97;;;1.23;;
22480;SDS011;11407;56.964;-2.212;2023-11-19T04:49:08;2.03;;;1.20;;
22480;SDS011;11407;56.964;-2.212;2023-11-19T04:51:39;2.40;;;1.10;;
22480;SDS011;11407;56.964;-2.212;2023-11-19T04:54:04;1.43;;;1.10;;
22480;SDS011;11407;56.964;-2.212;2023-11-19T04:56:30;1.90;;;1.00;;
22480;SDS011;11407;56.964;-2.212;2023-11-19T04:58:55;1.53;;;1.10;;
22480;SDS011;11407;56.964;-2.212;2023-11-19T05:01:20;1.53;;;1.00;;
22480;SDS011;11407;56.964;-2.212;2023-11-19T05:03:45;2.20;;;1.00;;
22480;SDS011;11407;56.964;-2.212;2023-11-19T05:06:11;1.57;;;0.80;;
22480;SDS011;11407;56.964;-2.212;2023-11-19T05:08:36;1.53;;;1.10;;
22480;SDS011;11407;56.964;-2.212;2023-11-19T05:11:02;3.10;;;1.00;;
22480;SDS011;11407;56.964;-2.212;2023-11-19T05:13:28;2.23;;;1.10;;
22480;SDS011;11407;56.964;-2.212;2023-11-19T05:15:53;2.17;;;1.13;;
22480;SDS011;11407;56.964;-2.212;2023-11-19T05:18:18;2.10;;;1.03;;
22480;SDS011;11407;56.964;-2.212;2023-11-19T05:20:45;1.53;;;1.03;;
22480;SDS011;11407;56.964;-2.212;2023-11-19T05:23:10;1.37;;;0.90;;
22480;SDS011;11407;56.964;-2.212;2023-11-19T05:25:36;2.43;;;1.10;;
22480;SDS011;11407;56.964;-2.212;2023-11-19T05:28:01;1.57;;;1.10;;
22480;SDS011;11407;56.964;-2.212;2023-11-19T05:30:27;3.30;;;1.20;;
22480;SDS011;11407;56.964;-2.212;2023-11-19T05:32:52;3.20;;;1.10;;
22480;SDS011;11407;56.964;-2.212;2023-11-19T05:35:17;2.60;;;1.07;;
22480;SDS011;11407;56.964;-2.212;2023-11-19T05:37:42;2.07;;;1.03;;
22480;SDS011;11407;56.964;-2.212;2023-11-19T05:40:08;3.50;;;1.20;;
22480;SDS011;11407;56.964;-2.212;2023-11-19T05:42:40;2.30;;;1.10;;
22480;SDS011;11407;56.964;-2.212;2023-11-19T05:45:05;3.27;;;1.10;;
22480;SDS011;11407;56.964;-2.212;2023-11-19T05:47:32;2.80;;;1.10;;
22480;SDS011;11407;56.964;-2.212;2023-11-19T05:49:58;2.20;;;1.20;;
22480;SDS011;11407;56.964;-2.212;2023-11-19T05:52:23;1.90;;;1.13;;
22480;SDS011;11407;56.964;-2.212;2023-11-19T05:54:48;2.60;;;1.00;;
22480;SDS011;11407;56.964;-2.212;2023-11-19T05:57:17;3.27;;;1.10;;
22480;SDS011;11407;56.964;-2.212;2023-11-19T05:59:47;6.00;;;1.30;;
22480;SDS011;11407;56.964;-2.212;2023-11-19T06:02:13;1.57;;;1.10;;
22480;SDS011;11407;56.964;-2.212;2023-11-19T06:04:38;3.07;;;1.10;;
22480;SDS011;11407;56.964;-2.212;2023-11-19T06:07:03;3.23;;;1.13;;
22480;SDS011;11407;56.964;-2.212;2023-11-19T06:09:30;5.30;;;1.23;;
22480;SDS011;11407;56.964;-2.212;2023-11-19T06:11:55;2.17;;;0.90;;
22480;SDS011;11407;56.964;-2.212;2023-11-19T06:14:22;2.50;;;1.23;;
22480;SDS011;11407;56.964;-2.212;2023-11-19T06:16:49;2.27;;;0.97;;
22480;SDS011;11407;56.964;-2.212;2023-11-19T06:19:16;3.77;;;0.90;;
22480;SDS011;11407;56.964;-2.212;2023-11-19T06:21:42;1.53;;;0.93;;
22480;SDS011;11407;56.964;-2.212;2023-11-19T06:24:07;4.90;;;1.30;;
22480;SDS011;11407;56.964;-2.212;2023-11-19T06:26:33;4.27;;;1.07;;
22480;SDS011;11407;56.964;-2.212;2023-11-19T06:28:59;4.23;;;1.10;;
22480;SDS011;11407;56.964;-2.212;2023-11-19T06:31:24;5.23;;;1.10;;
22480;SDS011;11407;56.964;-2.212;2023-11-19T06:33:49;4.37;;;1.50;;
22480;SDS011;11407;56.964;-2.212;2023-11-19T06:36:15;2.63;;;1.10;;
22480;SDS011;11407;56.964;-2.212;2023-11-19T06:38:41;2.67;;;1.20;;
22480;SDS011;11407;56.964;-2.212;2023-11-19T06:41:07;2.60;;;1.10;;
22480;SDS011;11407;56.964;-2.212;2023-11-19T06:43:33;2.70;;;1.07;;
22480;SDS011;11407;56.964;-2.212;2023-11-19T06:45:58;1.80;;;1.17;;
22480;SDS011;11407;56.964;-2.212;2023-11-19T06:48:24;3.90;;;1.10;;
22480;SDS011;11407;56.964;-2.212;2023-11-19T06:50:49;5.03;;;1.10;;
22480;SDS011;11407;56.964;-2.212;2023-11-19T06:53:14;3.73;;;1.13;;
22480;SDS011;11407;56.964;-2.212;2023-11-19T06:55:39;2.03;;;0.93;;
22480;SDS011;11407;56.964;-2.212;2023-11-19T06:58:05;2.70;;;1.10;;
22480;SDS011;11407;56.964;-2.212;2023-11-19T07:00:32;3.63;;;1.10;;
22480;SDS011;11407;56.964;-2.212;2023-11-19T07:02:58;3.10;;;1.20;;
22480;SDS011;11407;56.964;-2.212;2023-11-19T07:05:23;3.50;;;0.97;;
22480;SDS011;11407;56.964;-2.212;2023-11-19T07:07:49;2.53;;;1.10;;
22480;SDS011;11407;56.964;-2.212;2023-11-19T07:10:14;1.17;;;0.87;;
22480;SDS011;11407;56.964;-2.212;2023-11-19T07:12:40;3.03;;;1.00;;
22480;SDS011;11407;56.964;-2.212;2023-11-19T07:15:07;2.73;;;1.27;;
22480;SDS011;11407;56.964;-2.212;2023-11-19T07:17:33;6.07;;;1.20;;
22480;SDS011;11407;56.964;-2.212;2023-11-19T07:20:00;4.30;;;1.20;;
22480;SDS011;11407;56.964;-2.212;2023-11-19T07:22:25;1.97;;;1.00;;
22480;SDS011;11407;56.964;-2.212;2023-11-19T07:24:50;3.03;;;0.97;;
22480;SDS011;11407;56.964;-2.212;2023-11-19T07:27:16;4.77;;;1.20;;
22480;SDS011;11407;56.964;-2.212;2023-11-19T07:29:43;4.67;;;1.30;;
22480;SDS011;11407;56.964;-2.212;2023-11-19T07:32:08;1.33;;;1.03;;
22480;SDS011;11407;56.964;-2.212;2023-11-19T07:34:33;3.87;;;1.10;;
22480;SDS011;11407;56.964;-2.212;2023-11-19T07:36:59;1.37;;;1.00;;
22480;SDS011;11407;56.964;-2.212;2023-11-19T07:39:27;1.87;;;1.00;;
22480;SDS011;11407;56.964;-2.212;2023-11-19T07:41:52;4.30;;;1.00;;
22480;SDS011;11407;56.964;-2.212;2023-11-19T07:44:18;1.47;;;0.83;;
22480;SDS011;11407;56.964;-2.212;2023-11-19T07:46:43;5.33;;;0.93;;
22480;SDS011;11407;56.964;-2.212;2023-11-19T07:49:10;3.47;;;1.00;;
22480;SDS011;11407;56.964;-2.212;2023-11-19T07:51:35;1.83;;;0.70;;
22480;SDS011;11407;56.964;-2.212;2023-11-19T07:54:01;3.60;;;1.07;;
22480;SDS011;11407;56.964;-2.212;2023-11-19T07:56:26;5.00;;;1.10;;
22480;SDS011;11407;56.964;-2.212;2023-11-19T07:58:52;3.27;;;1.10;;
22480;SDS011;11407;56.964;-2.212;2023-11-19T08:01:17;2.50;;;1.00;;
22480;SDS011;11407;56.964;-2.212;2023-11-19T08:03:43;5.13;;;1.37;;
22480;SDS011;11407;56.964;-2.212;2023-11-19T08:06:08;2.80;;;1.20;;
22480;SDS011;11407;56.964;-2.212;2023-11-19T08:08:33;2.83;;;0.93;;
22480;SDS011;11407;56.964;-2.212;2023-11-19T08:11:00;3.00;;;0.90;;
22480;SDS011;11407;56.964;-2.212;2023-11-19T08:13:25;3.67;;;0.97;;
22480;SDS011;11407;56.964;-2.212;2023-11-19T08:15:50;3.97;;;1.17;;
22480;SDS011;11407;56.964;-2.212;2023-11-19T08:18:16;2.13;;;0.80;;
22480;SDS011;11407;56.964;-2.212;2023-11-19T08:20:41;2.73;;;1.10;;
22480;SDS011;11407;56.964;-2.212;2023-11-19T08:23:09;3.17;;;0.93;;
22480;SDS011;11407;56.964;-2.212;2023-11-19T08:25:34;3.77;;;1.33;;
22480;SDS011;11407;56.964;-2.212;2023-11-19T08:27:59;3.50;;;1.10;;
22480;SDS011;11407;56.964;-2.212;2023-11-19T08:30:25;2.87;;;1.00;;
22480;SDS011;11407;56.964;-2.212;2023-11-19T08:32:50;4.33;;;1.30;;
22480;SDS011;11407;56.964;-2.212;2023-11-19T08:35:15;3.70;;;0.97;;
22480;SDS011;11407;56.964;-2.212;2023-11-19T08:37:41;4.23;;;1.33;;
22480;SDS011;11407;56.964;-2.212;2023-11-19T08:40:07;3.57;;;1.17;;
22480;SDS011;11407;56.964;-2.212;2023-11-19T08:42:32;3.87;;;0.90;;
22480;SDS011;11407;56.964;-2.212;2023-11-19T08:44:58;1.10;;;0.80;;
22480;SDS011;11407;56.964;-2.212;2023-11-19T08:47:23;2.93;;;1.00;;
22480;SDS011;11407;56.964;-2.212;2023-11-19T08:49:52;1.47;;;0.93;;
22480;SDS011;11407;56.964;-2.212;2023-11-19T08:52:18;4.13;;;0.90;;
22480;SDS011;11407;56.964;-2.212;2023-11-19T08:54:44;4.33;;;1.00;;
22480;SDS011;11407;56.964;-2.212;2023-11-19T08:57:09;3.93;;;1.60;;
22480;SDS011;11407;56.964;-2.212;2023-11-19T08:59:34;4.57;;;1.27;;
22480;SDS011;11407;56.964;-2.212;2023-11-19T09:02:00;3.93;;;1.20;;
22480;SDS011;11407;56.964;-2.212;2023-11-19T09:04:25;3.10;;;1.50;;
22480;SDS011;11407;56.964;-2.212;2023-11-19T09:06:50;3.17;;;1.47;;
22480;SDS011;11407;56.964;-2.212;2023-11-19T09:09:15;3.17;;;1.30;;
22480;SDS011;11407;56.964;-2.212;2023-11-19T09:11:41;3.60;;;1.00;;
22480;SDS011;11407;56.964;-2.212;2023-11-19T09:14:06;4.40;;;1.33;;
22480;SDS011;11407;56.964;-2.212;2023-11-19T09:16:31;5.83;;;1.30;;
22480;SDS011;11407;56.964;-2.212;2023-11-19T09:18:57;2.63;;;1.10;;
22480;SDS011;11407;56.964;-2.212;2023-11-19T09:21:24;5.33;;;1.30;;
22480;SDS011;11407;56.964;-2.212;2023-11-19T09:23:50;2.73;;;1.20;;
22480;SDS011;11407;56.964;-2.212;2023-11-19T09:26:16;2.87;;;1.10;;
22480;SDS011;11407;56.964;-2.212;2023-11-19T09:28:41;4.17;;;1.13;;
22480;SDS011;11407;56.964;-2.212;2023-11-19T09:31:16;3.20;;;1.13;;
22480;SDS011;11407;56.964;-2.212;2023-11-19T09:33:42;3.13;;;1.13;;
22480;SDS011;11407;56.964;-2.212;2023-11-19T09:36:08;4.30;;;1.13;;
22480;SDS011;11407;56.964;-2.212;2023-11-19T09:38:33;1.73;;;0.90;;
22480;SDS011;11407;56.964;-2.212;2023-11-19T09:40:59;4.70;;;1.00;;
22480;SDS011;11407;56.964;-2.212;2023-11-19T09:43:26;3.50;;;1.20;;
22480;SDS011;11407;56.964;-2.212;2023-11-19T09:45:53;2.20;;;1.10;;
22480;SDS011;11407;56.964;-2.212;2023-11-19T09:48:19;3.40;;;1.13;;
22480;SDS011;11407;56.964;-2.212;2023-11-19T09:50:46;4.30;;;1.47;;
22480;SDS011;11407;56.964;-2.212;2023-11-19T09:53:11;1.50;;;0.80;;
22480;SDS011;11407;56.964;-2.212;2023-11-19T09:55:37;2.83;;;0.90;;
22480;SDS011;11407;56.964;-2.212;2023-11-19T09:58:02;4.63;;;1.10;;
22480;SDS011;11407;56.964;-2.212;2023-11-19T10:00:28;1.23;;;1.00;;
22480;SDS011;11407;56.964;-2.212;2023-11-19T10:02:53;2.37;;;0.90;;
22480;SDS011;11407;56.964;-2.212;2023-11-19T10:05:19;2.37;;;1.17;;
22480;SDS011;11407;56.964;-2.212;2023-11-19T10:07:45;2.13;;;1.13;;
22480;SDS011;11407;56.964;-2.212;2023-11-19T10:10:12;3.07;;;1.50;;
22480;SDS011;11407;56.964;-2.212;2023-11-19T10:12:40;3.53;;;1.00;;
22480;SDS011;11407;56.964;-2.212;2023-11-19T10:15:05;3.83;;;1.17;;
22480;SDS011;11407;56.964;-2.212;2023-11-19T10:17:32;4.80;;;1.30;;
22480;SDS011;11407;56.964;-2.212;2023-11-19T10:19:58;3.30;;;1.20;;
22480;SDS011;11407;56.964;-2.212;2023-11-19T10:22:23;2.80;;;1.30;;
22480;SDS011;11407;56.964;-2.212;2023-11-19T10:24:50;1.83;;;1.10;;
22480;SDS011;11407;56.964;-2.212;2023-11-19T10:27:15;4.57;;;1.20;;
22480;SDS011;11407;56.964;-2.212;2023-11-19T10:29:40;3.17;;;1.10;;
22480;SDS011;11407;56.964;-2.212;2023-11-19T10:32:09;1.53;;;1.17;;
22480;SDS011;11407;56.964;-2.212;2023-11-19T10:34:34;4.47;;;1.63;;
22480;SDS011;11407;56.964;-2.212;2023-11-19T10:37:02;2.20;;;1.30;;
22480;SDS011;11407;56.964;-2.212;2023-11-19T10:42:15;3.50;;;1.20;;
22480;SDS011;11407;56.964;-2.212;2023-11-19T10:44:41;2.60;;;1.33;;
22480;SDS011;11407;56.964;-2.212;2023-11-19T10:47:07;2.57;;;1.30;;
22480;SDS011;11407;56.964;-2.212;2023-11-19T10:49:33;3.43;;;1.10;;
22480;SDS011;11407;56.964;-2.212;2023-11-19T10:52:00;3.77;;;1.13;;
22480;SDS011;11407;56.964;-2.212;2023-11-19T10:54:25;1.27;;;0.80;;
22480;SDS011;11407;56.964;-2.212;2023-11-19T10:56:54;1.13;;;0.90;;
22480;SDS011;11407;56.964;-2.212;2023-11-19T10:59:20;2.13;;;1.07;;
22480;SDS011;11407;56.964;-2.212;2023-11-19T11:01:47;2.00;;;0.83;;
22480;SDS011;11407;56.964;-2.212;2023-11-19T11:04:22;1.53;;;1.30;;
22480;SDS011;11407;56.964;-2.212;2023-11-19T11:06:48;1.37;;;0.90;;
22480;SDS011;11407;56.964;-2.212;2023-11-19T11:09:13;3.00;;;1.20;;
22480;SDS011;11407;56.964;-2.212;2023-11-19T11:11:40;3.67;;;1.23;;
22480;SDS011;11407;56.964;-2.212;2023-11-19T11:14:06;4.20;;;1.30;;
22480;SDS011;11407;56.964;-2.212;2023-11-19T11:16:32;2.53;;;1.10;;
22480;SDS011;11407;56.964;-2.212;2023-11-19T11:18:57;3.93;;;1.20;;
22480;SDS011;11407;56.964;-2.212;2023-11-19T11:21:24;4.20;;;1.00;;
22480;SDS011;11407;56.964;-2.212;2023-11-19T11:31:56;3.07;;;1.00;;
22480;SDS011;11407;56.964;-2.212;2023-11-19T11:39:15;2.67;;;1.50;;
22480;SDS011;11407;56.964;-2.212;2023-11-19T11:41:41;3.53;;;1.40;;
22480;SDS011;11407;56.964;-2.212;2023-11-19T11:44:06;3.60;;;1.40;;
22480;SDS011;11407;56.964;-2.212;2023-11-19T11:48:58;2.83;;;1.30;;
22480;SDS011;11407;56.964;-2.212;2023-11-19T11:54:09;4.47;;;2.07;;
22480;SDS011;11407;56.964;-2.212;2023-11-19T11:56:37;2.23;;;1.07;;
22480;SDS011;11407;56.964;-2.212;2023-11-19T11:59:03;2.87;;;1.17;;
22480;SDS011;11407;56.964;-2.212;2023-11-19T12:01:28;2.07;;;1.10;;
22480;SDS011;11407;56.964;-2.212;2023-11-19T12:03:57;3.47;;;1.10;;
22480;SDS011;11407;56.964;-2.212;2023-11-19T12:06:23;1.27;;;1.10;;
22480;SDS011;11407;56.964;-2.212;2023-11-19T12:08:48;3.20;;;1.10;;
22480;SDS011;11407;56.964;-2.212;2023-11-19T12:11:13;4.03;;;1.30;;
22480;SDS011;11407;56.964;-2.212;2023-11-19T12:16:14;2.03;;;1.00;;
22480;SDS011;11407;56.964;-2.212;2023-11-19T12:18:39;2.00;;;1.00;;
22480;SDS011;11407;56.964;-2.212;2023-11-19T12:21:05;2.30;;;1.00;;
22480;SDS011;11407;56.964;-2.212;2023-11-19T12:23:32;2.77;;;1.13;;
22480;SDS011;11407;56.964;-2.212;2023-11-19T12:25:58;3.60;;;1.20;;
22480;SDS011;11407;56.964;-2.212;2023-11-19T12:28:23;2.13;;;1.10;;
22480;SDS011;11407;56.964;-2.212;2023-11-19T12:30:51;3.00;;;1.20;;
22480;SDS011;11407;56.964;-2.212;2023-11-19T12:33:17;3.33;;;0.90;;
22480;SDS011;11407;56.964;-2.212;2023-11-19T12:35:43;1.73;;;0.90;;
22480;SDS011;11407;56.964;-2.212;2023-11-19T12:41:07;4.37;;;1.20;;
22480;SDS011;11407;56.964;-2.212;2023-11-19T12:43:33;2.67;;;1.47;;
22480;SDS011;11407;56.964;-2.212;2023-11-19T12:46:02;2.47;;;1.10;;
22480;SDS011;11407;56.964;-2.212;2023-11-19T12:48:28;1.47;;;1.00;;
22480;SDS011;11407;56.964;-2.212;2023-11-19T12:50:54;2.13;;;1.00;;
22480;SDS011;11407;56.964;-2.212;2023-11-19T12:53:20;1.77;;;0.90;;
22480;SDS011;11407;56.964;-2.212;2023-11-19T12:55:45;1.40;;;0.90;;
22480;SDS011;11407;56.964;-2.212;2023-11-19T12:58:10;2.07;;;1.00;;
22480;SDS011;11407;56.964;-2.212;2023-11-19T13:00:36;2.57;;;1.33;;
22480;SDS011;11407;56.964;-2.212;2023-11-19T13:03:01;2.23;;;1.13;;
22480;SDS011;11407;56.964;-2.212;2023-11-19T13:05:30;3.23;;;1.03;;
22480;SDS011;11407;56.964;-2.212;2023-11-19T13:08:03;3.03;;;1.20;;
22480;SDS011;11407;56.964;-2.212;2023-11-19T13:10:30;2.40;;;1.10;;
22480;SDS011;11407;56.964;-2.212;2023-11-19T13:15:26;3.00;;;1.23;;
22480;SDS011;11407;56.964;-2.212;2023-11-19T13:17:52;2.47;;;1.27;;
22480;SDS011;11407;56.964;-2.212;2023-11-19T13:20:18;3.30;;;1.10;;
22480;SDS011;11407;56.964;-2.212;2023-11-19T13:25:23;5.50;;;1.60;;
22480;SDS011;11407;56.964;-2.212;2023-11-19T13:27:49;4.07;;;1.47;;
22480;SDS011;11407;56.964;-2.212;2023-11-19T13:30:14;2.93;;;1.53;;
22480;SDS011;11407;56.964;-2.212;2023-11-19T13:32:40;2.70;;;1.50;;
22480;SDS011;11407;56.964;-2.212;2023-11-19T13:35:05;4.27;;;1.30;;
22480;SDS011;11407;56.964;-2.212;2023-11-19T13:37:33;4.73;;;1.40;;
22480;SDS011;11407;56.964;-2.212;2023-11-19T13:39:59;1.73;;;1.10;;
22480;SDS011;11407;56.964;-2.212;2023-11-19T13:42:24;2.93;;;1.33;;
22480;SDS011;11407;56.964;-2.212;2023-11-19T13:44:49;5.83;;;1.30;;
22480;SDS011;11407;56.964;-2.212;2023-11-19T13:47:15;1.93;;;1.07;;
22480;SDS011;11407;56.964;-2.212;2023-11-19T13:49:40;2.67;;;1.10;;
22480;SDS011;11407;56.964;-2.212;2023-11-19T13:52:05;3.87;;;1.20;;
22480;SDS011;11407;56.964;-2.212;2023-11-19T13:54:31;2.63;;;1.17;;
22480;SDS011;11407;56.964;-2.212;2023-11-19T13:56:56;3.50;;;1.17;;
22480;SDS011;11407;56.964;-2.212;2023-11-19T13:59:26;2.90;;;1.23;;
22480;SDS011;11407;56.964;-2.212;2023-11-19T14:01:52;1.70;;;0.90;;
22480;SDS011;11407;56.964;-2.212;2023-11-19T14:04:17;3.53;;;1.40;;
22480;SDS011;11407;56.964;-2.212;2023-11-19T14:06:44;1.83;;;1.00;;
22480;SDS011;11407;56.964;-2.212;2023-11-19T14:09:10;2.37;;;1.07;;
22480;SDS011;11407;56.964;-2.212;2023-11-19T14:11:35;2.07;;;1.10;;
22480;SDS011;11407;56.964;-2.212;2023-11-19T14:14:00;2.63;;;1.00;;
22480;SDS011;11407;56.964;-2.212;2023-11-19T14:16:26;3.80;;;1.17;;
22480;SDS011;11407;56.964;-2.212;2023-11-19T14:18:51;2.10;;;1.20;;
22480;SDS011;11407;56.964;-2.212;2023-11-19T14:21:17;2.50;;;1.20;;
22480;SDS011;11407;56.964;-2.212;2023-11-19T14:23:42;1.30;;;1.13;;
22480;SDS011;11407;56.964;-2.212;2023-11-19T14:26:07;1.60;;;1.00;;
22480;SDS011;11407;56.964;-2.212;2023-11-19T14:28:33;1.90;;;1.00;;
22480;SDS011;11407;56.964;-2.212;2023-11-19T14:30:58;2.47;;;1.20;;
22480;SDS011;11407;56.964;-2.212;2023-11-19T14:33:24;4.37;;;2.07;;
22480;SDS011;11407;56.964;-2.212;2023-11-19T14:35:49;3.73;;;1.93;;
22480;SDS011;11407;56.964;-2.212;2023-11-19T14:38:14;2.27;;;1.67;;
22480;SDS011;11407;56.964;-2.212;2023-11-19T14:40:40;4.63;;;1.53;;
22480;SDS011;11407;56.964;-2.212;2023-11-19T14:43:07;1.90;;;1.37;;
22480;SDS011;11407;56.964;-2.212;2023-11-19T14:45:35;2.87;;;1.83;;
22480;SDS011;11407;56.964;-2.212;2023-11-19T14:48:00;2.87;;;1.90;;
22480;SDS011;11407;56.964;-2.212;2023-11-19T14:50:26;4.13;;;1.67;;
22480;SDS011;11407;56.964;-2.212;2023-11-19T14:52:52;3.23;;;2.17;;
22480;SDS011;11407;56.964;-2.212;2023-11-19T14:55:17;4.23;;;2.63;;
22480;SDS011;11407;56.964;-2.212;2023-11-19T14:57:42;3.40;;;2.00;;
22480;SDS011;11407;56.964;-2.212;2023-11-19T15:00:09;2.70;;;1.73;;